createdAt,value
2019-02-14T00:01:50.880Z,37.30
2019-02-14T00:04:20.324Z,37.30
2019-02-14T00:06:49.785Z,37.30
2019-02-14T00:09:19.214Z,37.30
2019-02-14T00:11:48.670Z,37.20
2019-02-14T00:14:18.107Z,37.20
2019-02-14T00:16:47.572Z,37.20
2019-02-14T00:19:17.000Z,37.20
2019-02-14T00:21:46.454Z,37.20
2019-02-14T00:24:15.891Z,37.20
2019-02-14T00:26:45.347Z,37.50
2019-02-14T00:29:14.782Z,37.10
2019-02-14T00:31:44.232Z,37.20
2019-02-14T00:34:13.663Z,37.10
2019-02-14T00:36:43.123Z,37.10
2019-02-14T00:39:12.578Z,37.80
2019-02-14T00:41:41.950Z,37.10
2019-02-14T00:44:11.302Z,37.10
2019-02-14T00:46:40.754Z,37.10
2019-02-14T00:49:10.190Z,37.10
2019-02-14T00:51:39.644Z,37.10
2019-02-14T00:54:09.074Z,37.10
2019-02-14T00:56:38.461Z,37.10
2019-02-14T00:59:07.886Z,37.10
2019-02-14T01:01:37.263Z,37.10
2019-02-14T01:04:07.766Z,37.10
2019-02-14T01:06:37.223Z,37.10
2019-02-14T01:09:06.826Z,37.00
2019-02-14T01:11:36.286Z,37.10
2019-02-14T01:14:05.794Z,37.10
2019-02-14T01:16:35.334Z,37.10
2019-02-14T01:19:04.766Z,37.10
2019-02-14T01:21:35.215Z,37.10
2019-02-14T01:24:04.651Z,37.10
2019-02-14T01:26:34.112Z,37.10
2019-02-14T01:29:03.543Z,37.10
2019-02-14T01:31:32.980Z,37.00
2019-02-14T01:34:02.498Z,37.10
2019-02-14T01:36:32.998Z,37.10
2019-02-14T01:39:02.456Z,37.20
2019-02-14T01:41:33.061Z,37.00
2019-02-14T01:44:02.514Z,37.10
2019-02-14T01:46:31.962Z,37.20
2019-02-14T01:49:01.399Z,37.10
2019-02-14T01:51:30.899Z,37.10
2019-02-14T01:54:00.354Z,37.10
2019-02-14T01:56:29.782Z,37.10
2019-02-14T01:58:59.246Z,37.10
2019-02-14T02:01:29.668Z,37.10
2019-02-14T02:03:59.120Z,37.20
2019-02-14T02:06:29.622Z,37.10
2019-02-14T02:08:59.090Z,37.10
2019-02-14T02:11:28.533Z,37.10
2019-02-14T02:13:57.987Z,37.10
2019-02-14T02:16:27.423Z,37.10
2019-02-14T02:18:56.887Z,37.20
2019-02-14T02:21:26.326Z,37.20
2019-02-14T02:23:55.781Z,37.80
2019-02-14T02:26:25.223Z,37.20
2019-02-14T02:28:54.691Z,37.10
2019-02-14T02:31:24.126Z,37.20
2019-02-14T02:33:53.579Z,37.20
2019-02-14T02:36:22.952Z,37.20
2019-02-14T02:38:52.465Z,37.20
2019-02-14T02:41:21.922Z,37.20
2019-02-14T02:43:51.313Z,37.20
2019-02-14T02:46:20.740Z,37.20
2019-02-14T02:48:50.231Z,37.10
2019-02-14T02:51:19.659Z,37.20
2019-02-14T02:53:49.191Z,37.20
2019-02-14T02:56:18.605Z,37.20
2019-02-14T02:58:48.063Z,37.20
2019-02-14T03:01:17.416Z,37.10
2019-02-14T03:03:46.882Z,37.10
2019-02-14T03:06:16.238Z,37.10
2019-02-14T03:08:45.623Z,37.10
2019-02-14T03:11:15.051Z,37.30
2019-02-14T03:13:44.515Z,37.10
2019-02-14T03:16:13.962Z,37.10
2019-02-14T03:18:43.423Z,37.10
2019-02-14T03:21:12.862Z,37.10
2019-02-14T03:23:42.322Z,37.10
2019-02-14T03:26:11.763Z,37.10
2019-02-14T03:28:42.292Z,37.10
2019-02-14T03:31:11.729Z,37.10
2019-02-14T03:33:41.164Z,37.00
2019-02-14T03:36:18.628Z,36.90
2019-02-14T03:38:41.595Z,37.00
2019-02-14T03:41:12.018Z,37.00
2019-02-14T03:43:41.452Z,37.00
2019-02-14T03:46:10.941Z,37.10
2019-02-14T03:48:40.374Z,37.10
2019-02-14T03:51:09.833Z,37.10
2019-02-14T03:53:39.258Z,37.00
2019-02-14T03:56:08.635Z,37.10
2019-02-14T03:58:38.066Z,37.00
2019-02-14T04:01:07.518Z,37.00
2019-02-14T04:03:36.871Z,37.00
2019-02-14T04:06:06.353Z,37.20
2019-02-14T04:08:35.795Z,37.00
2019-02-14T04:11:05.244Z,37.10
2019-02-14T04:13:34.671Z,37.10
2019-02-14T04:16:04.512Z,37.00
2019-02-14T04:18:34.068Z,37.10
2019-02-14T04:21:03.532Z,37.00
2019-02-14T04:23:32.959Z,37.00
2019-02-14T04:26:02.334Z,37.00
2019-02-14T04:28:31.830Z,37.00
2019-02-14T04:31:02.498Z,37.00
2019-02-14T04:33:31.857Z,37.00
2019-02-14T04:36:01.311Z,37.00
2019-02-14T04:38:30.733Z,37.00
2019-02-14T04:41:00.148Z,37.00
2019-02-14T04:43:29.543Z,37.00
2019-02-14T04:45:59.000Z,37.00
2019-02-14T04:48:28.430Z,37.10
2019-02-14T04:50:57.886Z,37.00
2019-02-14T04:53:27.241Z,37.00
2019-02-14T04:55:56.703Z,37.00
2019-02-14T04:58:26.139Z,37.00
2019-02-14T05:00:55.599Z,37.00
2019-02-14T05:03:25.034Z,37.00
2019-02-14T05:05:54.495Z,37.00
2019-02-14T05:08:23.926Z,37.00
2019-02-14T05:10:53.311Z,37.00
2019-02-14T05:13:22.738Z,37.00
2019-02-14T05:15:52.209Z,37.00
2019-02-14T05:18:21.634Z,37.00
2019-02-14T05:20:51.100Z,37.00
2019-02-14T05:23:20.473Z,37.00
2019-02-14T05:25:49.827Z,36.90
2019-02-14T05:28:19.281Z,36.90
2019-02-14T05:30:48.718Z,37.00
2019-02-14T05:33:18.176Z,36.90
2019-02-14T05:35:47.612Z,37.00
2019-02-14T05:38:17.067Z,36.90
2019-02-14T05:40:46.499Z,36.90
2019-02-14T05:43:15.963Z,37.00
2019-02-14T05:45:45.399Z,36.90
2019-02-14T05:48:14.847Z,36.90
2019-02-14T05:50:44.282Z,37.00
2019-02-14T05:53:13.737Z,37.00
2019-02-14T05:55:43.178Z,37.00
2019-02-14T05:58:12.632Z,37.00
2019-02-14T06:00:42.063Z,37.00
2019-02-14T06:03:11.516Z,36.90
2019-02-14T06:05:40.947Z,37.00
2019-02-14T06:08:10.407Z,37.00
2019-02-14T06:10:39.843Z,36.90
2019-02-14T06:13:09.328Z,37.10
2019-02-14T06:15:38.750Z,37.00
2019-02-14T06:18:08.226Z,37.20
2019-02-14T06:20:37.667Z,37.40
2019-02-14T06:23:07.143Z,37.30
2019-02-14T06:25:36.579Z,37.60
2019-02-14T06:28:06.033Z,37.80
2019-02-14T06:30:35.462Z,37.90
2019-02-14T06:33:04.918Z,37.90
2019-02-14T06:35:34.286Z,38.00
2019-02-14T06:38:03.721Z,38.00
2019-02-14T06:40:33.228Z,38.00
2019-02-14T06:43:04.255Z,37.90
2019-02-14T06:45:33.606Z,37.90
2019-02-14T06:48:02.979Z,37.80
2019-02-14T06:50:34.763Z,37.50
2019-02-14T06:53:03.345Z,37.60
2019-02-14T06:55:32.815Z,37.60
2019-02-14T06:58:02.194Z,37.60
2019-02-14T07:00:31.632Z,37.60
2019-02-14T07:03:01.083Z,37.50
2019-02-14T07:05:30.518Z,37.50
2019-02-14T07:07:59.893Z,37.40
2019-02-14T07:10:29.338Z,37.40
2019-02-14T07:12:58.794Z,37.30
2019-02-14T07:15:28.151Z,37.30
2019-02-14T07:17:57.614Z,37.40
2019-02-14T07:20:27.052Z,37.60
2019-02-14T07:22:56.532Z,37.70
2019-02-14T07:25:25.971Z,37.70
2019-02-14T07:27:55.428Z,37.50
2019-02-14T07:30:27.005Z,37.30
2019-02-14T07:32:56.385Z,36.70
2019-02-14T07:35:25.814Z,37.00
2019-02-14T07:37:55.272Z,37.00
2019-02-14T07:40:24.705Z,36.80
2019-02-14T07:42:54.154Z,36.80
2019-02-14T07:45:23.522Z,36.90
2019-02-14T07:47:52.975Z,37.00
2019-02-14T07:50:22.405Z,36.90
2019-02-14T07:52:51.858Z,36.90
2019-02-14T07:55:21.286Z,36.90
2019-02-14T07:57:50.742Z,36.90
2019-02-14T08:00:20.170Z,36.80
2019-02-14T08:02:49.548Z,36.80
2019-02-14T08:05:18.903Z,36.80
2019-02-14T08:07:48.354Z,37.30
2019-02-14T08:10:18.835Z,36.70
2019-02-14T08:12:48.287Z,36.70
2019-02-14T08:15:17.716Z,36.70
2019-02-14T08:17:47.175Z,36.70
2019-02-14T08:20:20.695Z,36.70
2019-02-14T08:22:50.151Z,36.60
2019-02-14T08:25:19.578Z,36.60
2019-02-14T08:27:48.966Z,36.50
2019-02-14T08:30:19.761Z,36.50
2019-02-14T08:32:49.139Z,36.60
2019-02-14T08:35:19.646Z,36.40
2019-02-14T08:37:49.095Z,36.50
2019-02-14T08:40:21.965Z,36.40
2019-02-14T08:42:51.354Z,36.40
2019-02-14T08:45:20.901Z,36.40
2019-02-14T08:47:50.335Z,36.30
2019-02-14T08:50:19.770Z,36.20
2019-02-14T08:52:49.231Z,36.20
2019-02-14T08:55:19.734Z,36.10
2019-02-14T08:57:49.107Z,36.10
2019-02-14T09:00:18.540Z,36.00
2019-02-14T09:02:47.994Z,35.90
2019-02-14T09:05:17.423Z,36.40
2019-02-14T09:07:54.212Z,35.30
2019-02-14T09:10:18.405Z,34.90
2019-02-14T09:12:48.246Z,34.50
2019-02-14T09:15:17.671Z,34.80
2019-02-14T09:17:47.106Z,34.00
2019-02-14T09:20:21.555Z,33.90
2019-02-14T09:22:51.015Z,33.80
2019-02-14T09:25:20.491Z,33.70
2019-02-14T09:27:49.965Z,33.60
2019-02-14T09:30:19.425Z,33.60
2019-02-14T09:32:49.135Z,33.70
2019-02-14T09:35:19.664Z,33.60
2019-02-14T09:37:49.095Z,33.70
2019-02-14T09:40:18.620Z,33.60
2019-02-14T09:42:48.065Z,33.60
2019-02-14T09:45:17.518Z,33.70
2019-02-14T09:47:46.960Z,33.70
2019-02-14T09:50:16.448Z,33.70
2019-02-14T09:52:45.842Z,33.80
2019-02-14T09:55:15.309Z,33.80
2019-02-14T09:57:44.752Z,33.90
2019-02-14T10:00:16.400Z,34.00
2019-02-14T10:02:45.871Z,34.10
2019-02-14T10:05:15.682Z,34.10
2019-02-14T10:07:45.119Z,34.10
2019-02-14T10:10:19.288Z,34.20
2019-02-14T10:12:48.703Z,34.20
2019-02-14T10:15:18.155Z,34.30
2019-02-14T10:17:47.602Z,34.30
2019-02-14T10:20:18.833Z,34.30
2019-02-14T10:22:48.268Z,34.30
2019-02-14T10:25:17.732Z,34.50
2019-02-14T10:27:47.158Z,34.50
2019-02-14T10:30:20.973Z,34.50
2019-02-14T10:32:51.671Z,34.50
2019-02-14T10:35:22.306Z,34.60
2019-02-14T10:37:51.740Z,34.60
2019-02-14T10:40:21.191Z,34.60
2019-02-14T10:42:50.623Z,34.60
2019-02-14T10:45:21.323Z,34.70
2019-02-14T10:47:50.759Z,34.70
2019-02-14T10:50:20.215Z,34.70
2019-02-14T10:52:49.648Z,34.70
2019-02-14T10:55:19.102Z,34.70
2019-02-14T10:57:48.454Z,34.80
2019-02-14T11:00:24.593Z,34.70
2019-02-14T11:02:54.019Z,34.80
2019-02-14T11:05:23.471Z,34.70
2019-02-14T11:07:52.823Z,34.70
2019-02-14T11:10:22.278Z,34.70
2019-02-14T11:12:51.715Z,34.80
2019-02-14T11:15:25.546Z,34.70
2019-02-14T11:17:54.978Z,35.30
2019-02-14T11:20:24.443Z,34.70
2019-02-14T11:22:53.879Z,34.70
2019-02-14T11:25:32.531Z,34.80
2019-02-14T11:28:01.973Z,34.80
2019-02-14T11:30:31.431Z,34.80
2019-02-14T11:33:00.867Z,34.80
2019-02-14T11:35:30.322Z,34.80
2019-02-14T11:37:59.680Z,34.80
2019-02-14T11:40:29.210Z,33.20
2019-02-14T11:42:58.691Z,32.70
2019-02-14T11:45:28.138Z,32.20
2019-02-14T11:47:57.573Z,32.20
2019-02-14T11:50:27.028Z,32.70
2019-02-14T11:52:56.507Z,32.50
2019-02-14T11:55:25.923Z,33.30
2019-02-14T11:57:56.322Z,33.50
2019-02-14T12:00:28.504Z,33.60
2019-02-14T12:02:57.939Z,33.80
2019-02-14T12:05:27.382Z,34.00
2019-02-14T12:07:57.141Z,33.90
2019-02-14T12:10:26.608Z,34.00
2019-02-14T12:12:56.039Z,34.20
2019-02-14T12:15:26.387Z,34.30
2019-02-14T12:17:55.750Z,34.30
2019-02-14T12:20:25.147Z,34.60
2019-02-14T12:22:54.575Z,34.50
2019-02-14T12:25:31.412Z,34.60
2019-02-14T12:28:00.847Z,34.70
2019-02-14T12:30:30.321Z,34.70
2019-02-14T12:32:59.730Z,34.80
2019-02-14T12:35:29.192Z,35.40
2019-02-14T12:37:58.740Z,34.70
2019-02-14T12:40:28.267Z,34.60
2019-02-14T12:42:57.775Z,34.60
2019-02-14T12:45:27.599Z,34.50
2019-02-14T12:47:57.031Z,34.50
2019-02-14T12:50:26.490Z,34.60
2019-02-14T12:52:55.926Z,34.50
2019-02-14T12:55:25.442Z,34.50
2019-02-14T12:57:54.863Z,34.50
2019-02-14T13:00:24.801Z,34.50
2019-02-14T13:02:54.230Z,34.50
2019-02-14T13:05:23.606Z,35.00
2019-02-14T13:07:52.964Z,34.40
2019-02-14T13:10:22.419Z,34.40
2019-02-14T13:12:51.854Z,34.00
2019-02-14T13:15:24.567Z,34.20
2019-02-14T13:17:53.999Z,34.50
2019-02-14T13:20:23.443Z,33.60
2019-02-14T13:22:52.874Z,33.60
2019-02-14T13:25:22.398Z,33.70
2019-02-14T13:27:51.799Z,33.70
2019-02-14T13:30:25.910Z,34.00
2019-02-14T13:32:56.315Z,34.30
2019-02-14T13:35:25.771Z,34.60
2019-02-14T13:37:55.211Z,34.50
2019-02-14T13:40:24.711Z,34.60
2019-02-14T13:42:55.137Z,34.50
2019-02-14T13:45:24.950Z,34.50
2019-02-14T13:47:54.386Z,34.60
2019-02-14T13:50:23.908Z,34.60
2019-02-14T13:52:53.460Z,34.60
2019-02-14T13:55:22.907Z,34.60
2019-02-14T13:57:52.338Z,35.20
2019-02-14T14:00:24.982Z,34.80
2019-02-14T14:02:54.412Z,34.30
2019-02-14T14:05:23.872Z,34.90
2019-02-14T14:07:53.301Z,35.00
2019-02-14T14:10:22.851Z,35.10
2019-02-14T14:12:52.487Z,35.10
2019-02-14T14:15:21.962Z,35.20
2019-02-14T14:17:51.348Z,35.90
2019-02-14T14:20:20.803Z,35.40
2019-02-14T14:22:50.264Z,35.50
2019-02-14T14:25:19.727Z,35.40
2019-02-14T14:27:49.197Z,35.30
2019-02-14T14:30:18.616Z,35.40
2019-02-14T14:32:48.071Z,35.40
2019-02-14T14:35:17.504Z,35.40
2019-02-14T14:37:46.986Z,35.40
2019-02-14T14:40:20.349Z,35.40
2019-02-14T14:42:51.511Z,35.30
2019-02-14T14:45:41.083Z,35.30
2019-02-14T14:48:19.228Z,35.30
2019-02-14T14:50:43.182Z,35.30
2019-02-14T14:53:12.621Z,35.30
2019-02-14T14:55:42.074Z,35.30
2019-02-14T14:58:11.692Z,35.30
2019-02-14T15:00:41.169Z,35.30
2019-02-14T15:03:10.603Z,34.80
2019-02-14T15:05:40.058Z,34.10
2019-02-14T15:08:09.438Z,34.60
2019-02-14T15:10:38.866Z,34.50
2019-02-14T15:13:08.315Z,34.70
2019-02-14T15:15:38.814Z,34.70
2019-02-14T15:18:08.220Z,34.80
2019-02-14T15:20:37.698Z,35.60
2019-02-14T15:23:07.387Z,35.10
2019-02-14T15:25:36.893Z,35.00
2019-02-14T15:28:06.351Z,35.10
2019-02-14T15:30:35.779Z,35.10
2019-02-14T15:33:06.450Z,35.10
2019-02-14T15:35:35.950Z,35.20
2019-02-14T15:38:07.451Z,35.20
2019-02-14T15:40:36.411Z,35.30
2019-02-14T15:43:05.858Z,35.20
2019-02-14T15:45:35.294Z,35.40
2019-02-14T15:48:04.671Z,35.30
2019-02-14T15:50:34.119Z,35.40
2019-02-14T15:53:03.715Z,35.40
2019-02-14T15:55:33.214Z,35.50
2019-02-14T15:58:06.658Z,35.50
2019-02-14T16:00:35.603Z,35.60
2019-02-14T16:03:05.128Z,35.50
2019-02-14T16:05:34.491Z,35.60
2019-02-14T16:08:04.904Z,35.60
2019-02-14T16:10:34.442Z,35.50
2019-02-14T16:13:05.838Z,35.70
2019-02-14T16:15:34.962Z,35.70
2019-02-14T16:18:04.562Z,35.70
2019-02-14T16:20:34.097Z,35.80
2019-02-14T16:23:04.189Z,36.00
2019-02-14T16:25:34.658Z,36.00
2019-02-14T16:28:04.239Z,36.00
2019-02-14T16:30:33.675Z,36.00
2019-02-14T16:33:03.135Z,36.00
2019-02-14T16:35:32.570Z,36.00
2019-02-14T16:38:02.025Z,36.00
2019-02-14T16:40:38.224Z,35.90
2019-02-14T16:43:02.494Z,36.00
2019-02-14T16:45:31.894Z,36.00
2019-02-14T16:48:01.363Z,36.00
2019-02-14T16:50:31.201Z,36.00
2019-02-14T16:53:00.703Z,36.10
2019-02-14T16:55:30.055Z,36.80
2019-02-14T16:57:59.517Z,36.00
2019-02-14T17:00:28.946Z,36.20
2019-02-14T17:02:58.479Z,36.20
2019-02-14T17:05:27.935Z,36.10
2019-02-14T17:07:57.427Z,36.50
2019-02-14T17:10:26.902Z,36.60
2019-02-14T17:12:56.250Z,36.70
2019-02-14T17:15:25.714Z,36.50
2019-02-14T17:17:55.395Z,36.80
2019-02-14T17:20:24.856Z,37.20
2019-02-14T17:22:54.285Z,37.70
2019-02-14T17:25:23.749Z,37.60
2019-02-14T17:27:53.186Z,37.70
2019-02-14T17:30:22.647Z,38.20
2019-02-14T17:32:52.082Z,38.40
2019-02-14T17:35:21.538Z,38.60
2019-02-14T17:37:51.035Z,38.60
2019-02-14T17:40:20.492Z,38.80
2019-02-14T17:42:49.933Z,39.40
2019-02-14T17:45:19.402Z,38.80
2019-02-14T17:47:48.831Z,38.80
2019-02-14T17:50:18.399Z,38.90
2019-02-14T17:52:48.822Z,39.00
2019-02-14T17:55:18.305Z,39.10
2019-02-14T17:57:47.799Z,39.10
2019-02-14T18:00:17.250Z,39.90
2019-02-14T18:02:46.603Z,39.20
2019-02-14T18:05:16.053Z,40.90
2019-02-14T18:07:45.482Z,39.50
2019-02-14T18:10:14.939Z,39.30
2019-02-14T18:12:44.373Z,39.30
2019-02-14T18:15:14.648Z,39.30
2019-02-14T18:17:44.041Z,39.30
2019-02-14T18:20:13.493Z,39.50
2019-02-14T18:22:42.924Z,39.50
2019-02-14T18:25:12.769Z,39.70
2019-02-14T18:27:42.201Z,39.70
2019-02-14T18:30:12.319Z,39.50
2019-02-14T18:32:41.747Z,39.50
2019-02-14T18:35:12.238Z,39.40
2019-02-14T18:37:41.599Z,39.50
2019-02-14T18:40:12.118Z,39.50
2019-02-14T18:42:48.891Z,39.50
2019-02-14T18:45:18.349Z,39.50
2019-02-14T18:47:47.835Z,39.60
2019-02-14T18:50:17.328Z,39.60
2019-02-14T18:52:46.828Z,39.80
2019-02-14T18:55:18.220Z,39.60
2019-02-14T18:57:48.339Z,39.60
2019-02-14T19:00:18.826Z,40.00
2019-02-14T19:02:48.327Z,39.50
2019-02-14T19:05:19.051Z,39.50
2019-02-14T19:07:48.427Z,39.50
2019-02-14T19:10:18.222Z,39.50
2019-02-14T19:12:48.647Z,39.50
2019-02-14T19:15:18.161Z,39.50
2019-02-14T19:17:47.531Z,39.50
2019-02-14T19:20:17.281Z,39.50
2019-02-14T19:22:46.708Z,39.00
2019-02-14T19:25:16.227Z,38.70
2019-02-14T19:27:46.744Z,38.60
2019-02-14T19:30:17.246Z,38.50
2019-02-14T19:32:46.627Z,38.90
2019-02-14T19:35:22.731Z,38.10
2019-02-14T19:37:47.064Z,38.00
2019-02-14T19:40:16.522Z,37.70
2019-02-14T19:42:45.976Z,37.80
2019-02-14T19:45:15.411Z,37.40
2019-02-14T19:47:44.871Z,37.30
2019-02-14T19:50:15.478Z,37.30
2019-02-14T19:52:44.931Z,37.30
2019-02-14T19:55:14.359Z,37.30
2019-02-14T19:57:43.821Z,37.30
2019-02-14T20:00:16.367Z,37.30
2019-02-14T20:02:45.822Z,37.70
2019-02-14T20:05:15.180Z,38.00
2019-02-14T20:07:44.639Z,37.30
2019-02-14T20:10:14.662Z,37.30
2019-02-14T20:12:44.117Z,37.30
2019-02-14T20:15:18.759Z,37.30
2019-02-14T20:17:48.230Z,37.30
2019-02-14T20:20:17.668Z,37.30
2019-02-14T20:22:47.120Z,37.30
2019-02-14T20:25:25.222Z,37.30
2019-02-14T20:27:54.610Z,37.30
2019-02-14T20:30:24.066Z,37.30
2019-02-14T20:32:53.518Z,37.30
2019-02-14T20:35:22.957Z,37.30
2019-02-14T20:37:52.497Z,37.30
2019-02-14T20:40:21.939Z,37.30
2019-02-14T20:42:51.395Z,37.40
2019-02-14T20:45:20.826Z,37.30
2019-02-14T20:47:50.360Z,37.30
2019-02-14T20:50:19.832Z,37.40
2019-02-14T20:52:49.293Z,37.40
2019-02-14T20:55:21.450Z,37.40
2019-02-14T20:57:51.904Z,37.40
2019-02-14T21:00:34.699Z,37.30
2019-02-14T21:03:04.155Z,37.30
2019-02-14T21:05:33.586Z,37.30
2019-02-14T21:08:03.075Z,37.40
2019-02-14T21:10:32.552Z,37.40
2019-02-14T21:13:02.100Z,37.40
2019-02-14T21:15:31.662Z,37.50
2019-02-14T21:18:01.253Z,37.50
2019-02-14T21:20:30.881Z,37.50
2019-02-14T21:23:00.349Z,37.40
2019-02-14T21:25:29.901Z,37.50
2019-02-14T21:27:59.346Z,37.40
2019-02-14T21:30:28.789Z,37.50
2019-02-14T21:32:58.239Z,37.50
2019-02-14T21:35:27.820Z,38.10
2019-02-14T21:37:57.323Z,37.50
2019-02-14T21:40:26.727Z,37.50
2019-02-14T21:42:56.354Z,37.50
2019-02-14T21:45:25.784Z,37.50
2019-02-14T21:47:55.265Z,37.50
2019-02-14T21:50:24.839Z,37.50
2019-02-14T21:52:54.689Z,37.50
2019-02-14T21:55:24.122Z,37.40
2019-02-14T21:57:53.561Z,37.50
2019-02-14T22:00:25.832Z,37.50
2019-02-14T22:02:55.275Z,37.50
2019-02-14T22:05:26.336Z,37.50
2019-02-14T22:07:56.094Z,37.50
2019-02-14T22:10:25.578Z,37.40
2019-02-14T22:12:54.983Z,37.40
2019-02-14T22:15:27.091Z,37.40
2019-02-14T22:17:56.593Z,37.50
2019-02-14T22:20:26.046Z,37.50
2019-02-14T22:22:55.466Z,37.50
2019-02-14T22:25:25.135Z,37.50
2019-02-14T22:27:54.487Z,37.50
2019-02-14T22:30:24.120Z,37.50
2019-02-14T22:32:53.566Z,37.50
2019-02-14T22:35:23.015Z,37.50
2019-02-14T22:37:52.448Z,37.50
2019-02-14T22:40:21.822Z,37.60
2019-02-14T22:42:51.248Z,37.50
2019-02-14T22:45:20.711Z,37.50
2019-02-14T22:47:50.072Z,37.50
2019-02-14T22:50:19.517Z,37.90
2019-02-14T22:52:48.879Z,37.50
2019-02-14T22:55:18.668Z,37.60
2019-02-14T22:57:48.138Z,37.50
2019-02-14T23:00:30.418Z,37.50
2019-02-14T23:03:01.492Z,37.60
2019-02-14T23:05:30.948Z,37.50
2019-02-14T23:08:00.384Z,37.50
2019-02-14T23:10:29.886Z,37.50
2019-02-14T23:13:00.490Z,37.40
2019-02-14T23:15:29.972Z,37.40
2019-02-14T23:18:00.371Z,37.40
2019-02-14T23:20:29.830Z,37.40
2019-02-14T23:22:59.278Z,37.80
2019-02-14T23:25:28.658Z,37.40
2019-02-14T23:27:58.162Z,37.40
2019-02-14T23:30:27.618Z,37.40
2019-02-14T23:32:56.970Z,37.40
2019-02-14T23:35:26.354Z,37.40
2019-02-14T23:37:55.778Z,37.40
2019-02-14T23:40:25.160Z,37.40
2019-02-14T23:42:54.591Z,36.90
2019-02-14T23:45:24.046Z,37.40
2019-02-14T23:47:53.480Z,37.30
2019-02-14T23:50:22.935Z,37.30
2019-02-14T23:52:52.294Z,37.30
2019-02-14T23:55:21.745Z,37.30
2019-02-14T23:57:51.171Z,37.40
